• Join FlightAware (Why Join?)
  • Login
  • US Flag 
09:05PM EDT


 

Airport Tracker/Info


-or-


 

Live Flight TrackerFlight Track Log ✈ N1322L ✈ 18-Jul-2013 ✈ KSZL - KHYR

Flight Track Log - Related Links

Times and Time Zones

All times are in EDT time to prevent confusion due to time zone crossing. See the N1322L flight status page for this flight to view local times or setup timezone preferences in your user account.

Time Position Orientation Groundspeed Altitude Reporting Facility
EDT Latitude Longitude Course Direction KTS MPH feet Rate Location/Type
10:57AM 38.9675 -93.7597 11° North 122 140 3,600  Level Kansas City Center
10:58AM 39.0164 -93.7497 North 156 180 4,200 480 Climbing Kansas City Center
10:59AM 39.0561 -93.7411 10° North 153 176 4,600 360 Climbing Kansas City Center
11:00AM 39.1044 -93.7275 12° North 157 181 5,000 300 Climbing Kansas City Center
11:01AM 39.0128 -93.4751 11° North  Level Estimated
11:01AM 39.1461 -93.7175 11° North 159 183 5,300  Level Kansas City Center
11:02AM 39.0531 -93.4646 11° North  Level Estimated
11:02AM 39.1950 -93.7036 12° North 162 186 5,500  Level Kansas City Center
11:03AM 39.2375 -93.6908 13° North 163 188 5,900 300 Climbing Kansas City Center
11:04AM 39.2864 -93.6772 12° North 163 188 6,200 240 Climbing Kansas City Center
11:05AM 39.3306 -93.6639 13° North 165 190 6,500 240 Climbing Kansas City Center
11:06AM 39.3744 -93.6519 12° North 163 188 6,800 240 Climbing Kansas City Center
11:07AM 39.4175 -93.6403 12° North 160 184 7,100 240 Climbing Kansas City Center
11:08AM 39.4608 -93.6283 12° North 161 185 7,400 240 Climbing Kansas City Center
11:09AM 39.5142 -93.6117 14° North 163 188 7,600 120 Climbing Kansas City Center
11:10AM 39.5592 -93.5961 15° North 166 191 7,700 180 Climbing Kansas City Center
11:11AM 39.6050 -93.5839 12° North 168 193 8,000 240 Climbing Kansas City Center
11:13AM 39.6486 -93.5697 14° North 166 191 8,200 180 Climbing Kansas City Center
11:14AM 39.6942 -93.5578 11° North 166 191 8,400 180 Climbing Kansas City Center
11:15AM 39.7492 -93.5428 12° North 168 193 8,600 180 Climbing Kansas City Center
11:16AM 39.7950 -93.5283 14° North 169 194 8,800 240 Climbing Kansas City Center
11:17AM 39.8414 -93.5164 11° North 170 196 9,100 240 Climbing Kansas City Center
11:18AM 39.8853 -93.5044 12° North 166 191 9,300 180 Climbing Kansas City Center
11:19AM 39.9294 -93.4897 14° North 166 191 9,500 180 Climbing Kansas City Center
11:20AM 39.9836 -93.4728 13° North 167 192 9,700 60 Climbing Kansas City Center
11:21AM 40.0322 -93.4575 14° North 172 198 9,700  Level Kansas City Center
11:22AM 40.0797 -93.4422 14° North 176 203 9,700  Level Kansas City Center
11:23AM 40.1278 -93.4256 15° North 178 205 9,700  Level Kansas City Center
11:24AM 40.1764 -93.4092 14° North 180 207 9,700  Level Kansas City Center
11:25AM 40.2344 -93.3939 11° North 180 207 9,700  Level Kansas City Center
11:26AM 40.2825 -93.3792 13° North 179 206 9,700  Level Kansas City Center
11:27AM 40.3306 -93.3639 14° North 179 206 9,700  Level Kansas City Center
11:28AM 40.3797 -93.3492 13° North 180 207 9,700  Level Kansas City Center
11:29AM 40.4272 -93.3336 14° North 179 206 9,700  Level Kansas City Center
11:30AM 40.4758 -93.3189 13° North 179 206 9,700  Level Kansas City Center
11:31AM 40.5344 -93.3022 12° North 180 207 9,700  Level Kansas City Center
11:32AM 40.5828 -93.2867 14° North 180 207 9,700  Level Kansas City Center
11:33AM 40.6314 -93.2733 12° North 180 207 9,700  Level Kansas City Center
11:34AM 40.6792 -93.2581 14° North 179 206 9,700  Level Kansas City Center
11:35AM 40.7272 -93.2442 12° North 179 206 9,700 -120 Level Kansas City Center
11:36AM 40.7761 -93.2300 12° North 179 206 9,500  Descending Kansas City Center
11:38AM 40.8619 -93.2031 13° North 179 206 9,700 60 Climbing Minneapolis Center
11:38AM 40.8833 -93.1953 15° North 200 230 9,700  Level Chicago Center
11:39AM 40.9317 -93.1803 13° North 181 208 9,700  Level Chicago Center
11:41AM 41.0125 -93.1569 12° North 181 208 9,700  Level Minneapolis Center
11:42AM 41.0653 -93.1422 12° North 180 207 9,700  Level Minneapolis Center
11:43AM 41.1147 -93.1289 11° North 182 209 9,700  Level Minneapolis Center
11:44AM 41.1661 -93.1108 15° North 178 205 9,700  Level Minneapolis Center
11:45AM 41.2150 -93.0958 13° North 180 207 9,700  Level Minneapolis Center
11:46AM 41.2672 -93.0789 14° North 180 207 9,700  Level Minneapolis Center
11:47AM 41.3147 -93.0633 14° North 178 205 9,700  Level Minneapolis Center
11:48AM 41.3667 -93.0472 13° North 178 205 9,700  Level Minneapolis Center
11:49AM 41.4139 -93.0306 15° North 177 204 9,700  Level Minneapolis Center
11:50AM 41.4639 -93.0131 15° North 175 201 9,700  Level Minneapolis Center
11:51AM 41.5125 -92.9972 14° North 178 205 9,700  Level Minneapolis Center
11:52AM 41.5644 -92.9800 14° North 179 206 9,700  Level Minneapolis Center
11:53AM 41.6131 -92.9644 13° North 181 208 9,700  Level Minneapolis Center
11:54AM 41.6608 -92.9500 13° North 177 204 9,700  Level Minneapolis Center
11:55AM 41.7108 -92.9339 14° North 176 203 9,700  Level Minneapolis Center
11:56AM 41.7575 -92.9158 16° North 175 201 9,700  Level Minneapolis Center
11:57AM 41.8056 -92.9014 13° North 176 203 9,700  Level Minneapolis Center
11:59AM 41.8536 -92.8853 14° North 178 205 9,700  Level Minneapolis Center
12:00PM 41.9017 -92.8694 14° North 179 206 9,700  Level Minneapolis Center
12:01PM 41.9569 -92.8558 10° North 179 206 9,700  Level Minneapolis Center
12:02PM 42.0056 -92.8406 13° North 181 208 9,700  Level Minneapolis Center
12:03PM 42.0522 -92.8219 16° North 177 204 9,700  Level Chicago Center
12:04PM 42.1003 -92.8061 14° North 178 205 9,700  Level Chicago Center
12:05PM 42.1572 -92.7858 15° North 178 205 9,700  Level Chicago Center
12:06PM 42.2044 -92.7686 15° North 177 204 9,700  Level Chicago Center
12:07PM 42.2531 -92.7525 14° North 178 205 9,700  Level Chicago Center
12:08PM 42.3008 -92.7358 14° North 178 205 9,700  Level Chicago Center
12:09PM 42.3497 -92.7214 12° North 179 206 9,700  Level Chicago Center
12:10PM 42.4075 -92.7033 13° North 179 206 9,700  Level Chicago Center
12:11PM 42.4561 -92.6889 12° North 180 207 9,700  Level Chicago Center
12:12PM 42.5044 -92.6744 12° North 179 206 9,700  Level Chicago Center
12:13PM 42.5517 -92.6594 13° North 178 205 9,700  Level Chicago Center
12:14PM 42.5997 -92.6439 13° North 178 205 9,700  Level Chicago Center
12:15PM 42.6597 -92.6267 12° North 181 208 9,700  Level Chicago Center
12:16PM 42.7078 -92.6103 14° North 181 208 9,700  Level Chicago Center
12:17PM 42.7569 -92.5922 15° North 182 209 9,700  Level Chicago Center
12:18PM 42.8056 -92.5753 14° North 182 209 9,700 -60 Level Chicago Center
12:19PM 42.8542 -92.5592 14° North 181 208 9,600 -60 Descending Chicago Center
12:20PM 42.9128 -92.5394 14° North 182 209 9,600  Level Chicago Center
12:21PM 42.9622 -92.5206 16° North 183 211 9,600  Level Chicago Center
12:22PM 43.0111 -92.5053 13° North 183 211 9,600  Level Chicago Center
12:23PM 43.0631 -92.4875 14° North 183 211 9,700  Climbing Minneapolis Center
12:24PM 43.1208 -92.4656 15° North 182 209 9,700  Level Minneapolis Center
12:25PM 43.1692 -92.4489 14° North 180 207 9,700  Level Minneapolis Center
12:26PM 43.2169 -92.4358 11° North 182 209 9,700  Level Minneapolis Center
12:27PM 43.2675 -92.4197 13° North 181 208 9,700 -60 Level Minneapolis Center
12:29PM 43.3256 -92.4003 14° North 182 209 9,600 -60 Descending Minneapolis Center
12:30PM 43.3767 -92.3828 14° North 181 208 9,600  Level Minneapolis Center
12:31PM 43.4258 -92.3681 12° North 182 209 9,600  Level Minneapolis Center
12:32PM 43.4783 -92.3525 12° North 181 208 9,600  Level Minneapolis Center
12:33PM 43.5264 -92.3353 15° North 181 208 9,600  Level Minneapolis Center
12:34PM 43.5786 -92.3181 13° North 180 207 9,600  Level Minneapolis Center
12:35PM 43.6272 -92.3017 14° North 181 208 9,600  Level Minneapolis Center
12:36PM 43.6783 -92.2833 15° North 180 207 9,600  Level Minneapolis Center
12:37PM 43.7261 -92.2672 14° North 178 205 9,600  Level Minneapolis Center
12:38PM 43.7775 -92.2481 15° North 179 206 9,600  Level Minneapolis Center
12:39PM 43.8297 -92.2297 14° North 182 209 9,600  Level Minneapolis Center
12:40PM 43.8775 -92.2119 15° North 180 207 9,600  Level Minneapolis Center
12:41PM 43.9289 -92.1942 14° North 179 206 9,600  Level Minneapolis Center
12:42PM 43.9767 -92.1792 13° North 179 206 9,600  Level Minneapolis Center
12:43PM 44.0283 -92.1628 13° North 180 207 9,600  Level Minneapolis Center
12:44PM 44.0775 -92.1461 14° North 180 207 9,600  Level Minneapolis Center
12:45PM 44.1297 -92.1308 12° North 181 208 9,600  Level Minneapolis Center
12:46PM 44.1783 -92.1156 13° North 182 209 9,600  Level Minneapolis Center
12:47PM 44.2308 -92.0989 13° North 185 213 9,600  Level Minneapolis Center
12:48PM 44.2786 -92.0842 12° North 182 209 9,600  Level Minneapolis Center
12:49PM 44.3275 -92.0678 13° North 180 207 9,600  Level Minneapolis Center
12:50PM 44.3764 -92.0525 13° North 180 207 9,600  Level Minneapolis Center
12:51PM 44.4350 -92.0300 15° North 185 213 9,600  Level Minneapolis Center
12:52PM 44.4853 -92.0078 18° North 183 211 9,600  Level Minneapolis Center
12:53PM 44.5325 -91.9878 17° North 181 208 9,600 -60 Level Minneapolis Center
12:54PM 44.5803 -91.9667 17° North 180 207 9,500 -180 Descending Minneapolis Center
12:55PM 44.6325 -91.9458 16° North 188 216 9,300 -240 Descending Minneapolis Center
12:56PM 44.6831 -91.9269 15° North 189 217 9,100 -240 Descending Minneapolis Center
12:57PM 44.7442 -91.9028 16° North 190 219 8,900 -180 Descending Minneapolis Center
12:59PM 44.7944 -91.8861 13° North 187 215 8,800 -180 Descending Minneapolis Center
01:00PM 44.8453 -91.8675 15° North 188 216 8,600 -240 Descending Minneapolis Center
01:01PM 44.8956 -91.8500 14° North 188 216 8,400 -240 Descending Minneapolis Center
01:02PM 44.9458 -91.8314 15° North 187 215 8,200 -240 Descending Minneapolis Center
01:03PM 45.0089 -91.8111 13° North 190 219 8,000 -240 Descending Minneapolis Center
01:04PM 45.0608 -91.7944 13° North 191 220 7,800 -240 Descending Minneapolis Center
01:05PM 45.1122 -91.7769 14° North 192 221 7,600 -240 Descending Minneapolis Center
01:06PM 45.1636 -91.7603 13° North 191 220 7,400 -180 Descending Minneapolis Center
01:07PM 45.2139 -91.7414 15° North 190 219 7,300 -180 Descending Minneapolis Center
01:08PM 45.2650 -91.7236 14° North 190 219 7,100 1,020 Descending Minneapolis Center
01:09PM 45.3292 -91.7017 14° North 192 221 9,500 1,140 Climbing Minneapolis Center
01:10PM 45.3814 -91.6836 14° North 193 222 9,500  Level Minneapolis Center
01:11PM 45.4367 -91.6683 11° North 196 226 9,500 -1,740 Level Minneapolis Center
01:12PM 45.4894 -91.6489 14° North 194 223 6,000  Descending Minneapolis Center
01:13PM 45.5417 -91.6344 11° North 196 226 9,500 -300 Climbing Minneapolis Center
01:14PM 45.6150 -91.6064 15° North 197 227 5,400 -1,800 Descending Minneapolis Center
01:15PM 45.6664 -91.5919 11° North 198 228 5,400  Level Minneapolis Center
01:17PM 45.7197 -91.5619 21° North  Level FlightAware Approximate
01:24PM 46.0167 -91.4333 North  Level FlightAware Approximate
01:25PM 46.0253 -91.4443 North  Level Estimated
01:26PM 46.0253 -91.4443 North  Level Estimated
01:27PM 46.0253 -91.4443 North  Level Estimated
01:28PM 46.0253 -91.4443 North  Level Estimated
01:29PM 46.0253 -91.4443 North  Level Estimated
01:30PM 46.0253 -91.4443 North  Level Estimated